createdAt,value
2022-11-05T00:02:03.372Z,101351.19
2022-11-05T00:04:50.341Z,101357.78
2022-11-05T00:07:42.003Z,101366.53
2022-11-05T00:10:18.215Z,101356.25
2022-11-05T00:13:05.571Z,101362.66
2022-11-05T00:15:52.305Z,101367.38
2022-11-05T00:18:20.732Z,101370.41
2022-11-05T00:20:49.236Z,101372.91
2022-11-05T00:23:36.251Z,101368.41
2022-11-05T00:26:08.012Z,101365.00
2022-11-05T00:28:36.375Z,101364.34
2022-11-05T00:31:10.397Z,101370.56
2022-11-05T00:33:40.813Z,101370.75
2022-11-05T00:36:10.821Z,101376.16
2022-11-05T00:38:39.216Z,101377.81
2022-11-05T00:41:07.954Z,101378.31
2022-11-05T00:43:54.995Z,101374.56
2022-11-05T00:46:23.386Z,101389.19
2022-11-05T00:49:10.153Z,101390.56
2022-11-05T00:51:38.545Z,101397.97
2022-11-05T00:54:06.954Z,101402.00
2022-11-05T00:56:35.281Z,101407.34
2022-11-05T00:59:03.744Z,101397.22
2022-11-05T01:01:33.235Z,101399.34
2022-11-05T01:04:01.701Z,101409.41
2022-11-05T01:06:30.114Z,101404.88
2022-11-05T01:08:58.475Z,101404.56
2022-11-05T01:11:37.201Z,101410.16
2022-11-05T01:14:11.369Z,101411.16
2022-11-05T01:16:40.714Z,101404.22
2022-11-05T01:19:10.509Z,101406.88
2022-11-05T01:21:39.016Z,101421.50
2022-11-05T01:24:07.730Z,101424.31
2022-11-05T01:26:36.082Z,101432.22
2022-11-05T01:29:04.525Z,101426.34
2022-11-05T01:31:32.944Z,101433.91
2022-11-05T01:34:01.728Z,101439.50
2022-11-05T01:36:30.580Z,101435.75
2022-11-05T01:38:59.081Z,101443.38
2022-11-05T01:41:27.578Z,101441.38
2022-11-05T01:44:01.337Z,101447.25
2022-11-05T01:46:36.519Z,101442.19
2022-11-05T01:49:18.877Z,101439.88
2022-11-05T01:51:48.214Z,101442.13
2022-11-05T01:54:21.895Z,101437.13
2022-11-05T01:56:58.098Z,101449.19
2022-11-05T01:59:29.514Z,101450.44
2022-11-05T02:01:58.319Z,101443.47
2022-11-05T02:04:36.382Z,101437.28
2022-11-05T02:07:07.155Z,101430.75
2022-11-05T02:10:00.395Z,101432.84
2022-11-05T02:12:29.750Z,101441.44
2022-11-05T02:14:58.600Z,101428.78
2022-11-05T02:17:57.035Z,101431.38
2022-11-05T02:20:55.786Z,101427.28
2022-11-05T02:23:33.198Z,101432.25
2022-11-05T02:26:23.563Z,101428.94
2022-11-05T02:29:15.244Z,101438.72
2022-11-05T02:32:09.085Z,101434.41
2022-11-05T02:35:09.126Z,101432.41
2022-11-05T02:37:45.637Z,101428.28
2022-11-05T02:40:23.286Z,101428.56
2022-11-05T02:43:15.947Z,101418.22
2022-11-05T02:45:50.316Z,101417.44
2022-11-05T02:48:37.412Z,101429.97
2022-11-05T02:51:16.509Z,101432.41
2022-11-05T02:53:53.605Z,101421.69
2022-11-05T02:56:26.936Z,101421.38
2022-11-05T02:58:55.286Z,101422.81
2022-11-05T03:01:23.826Z,101426.22
2022-11-05T03:03:57.612Z,101422.44
2022-11-05T03:06:40.958Z,101418.84
2022-11-05T03:09:24.657Z,101424.22
2022-11-05T03:12:02.688Z,101424.06
2022-11-05T03:14:48.149Z,101422.75
2022-11-05T03:17:30.791Z,101420.66
2022-11-05T03:20:25.600Z,101425.59
2022-11-05T03:23:05.342Z,101431.56
2022-11-05T03:25:39.120Z,101424.81
2022-11-05T03:28:10.810Z,101433.25
2022-11-05T03:30:41.931Z,101422.06
2022-11-05T03:33:16.895Z,101420.81
2022-11-05T03:35:52.074Z,101431.59
2022-11-05T03:38:45.145Z,101433.56
2022-11-05T03:41:30.927Z,101435.72
2022-11-05T03:48:13.087Z,101441.50
2022-11-05T03:51:16.493Z,101429.81
2022-11-05T03:53:51.946Z,101430.56
2022-11-05T03:56:59.613Z,101432.34
2022-11-05T04:03:09.787Z,101435.78
2022-11-05T04:05:44.520Z,101446.72
2022-11-05T04:08:37.262Z,101441.19
2022-11-05T04:11:24.629Z,101443.25
2022-11-05T04:16:56.608Z,101446.72
2022-11-05T04:19:43.518Z,101440.06
2022-11-05T04:22:30.389Z,101454.84
2022-11-05T04:24:58.781Z,101452.47
2022-11-05T04:27:27.128Z,101456.63
2022-11-05T04:30:14.321Z,101458.78
2022-11-05T04:32:42.719Z,101455.75
2022-11-05T04:35:11.191Z,101456.88
2022-11-05T04:37:39.507Z,101455.19
2022-11-05T04:40:08.346Z,101452.91
2022-11-05T04:42:36.777Z,101455.31
2022-11-05T04:45:05.626Z,101455.41
2022-11-05T04:47:33.981Z,101461.50
2022-11-05T04:50:02.337Z,101459.53
2022-11-05T04:52:30.763Z,101468.41
2022-11-05T04:54:59.102Z,101473.81
2022-11-05T04:57:27.469Z,101473.81
2022-11-05T04:59:55.845Z,101484.13
2022-11-05T05:02:24.331Z,101480.09
2022-11-05T05:04:52.816Z,101477.81
2022-11-05T05:07:21.340Z,101481.09
2022-11-05T05:09:49.925Z,101482.91
2022-11-05T05:12:18.421Z,101482.66
2022-11-05T05:14:49.045Z,101480.53
2022-11-05T05:17:17.599Z,101484.84
2022-11-05T05:20:04.712Z,101479.44
2022-11-05T05:22:33.060Z,101492.63
2022-11-05T05:25:01.750Z,101486.97
2022-11-05T05:27:30.629Z,101493.00
2022-11-05T05:29:59.921Z,101492.72
2022-11-05T05:32:28.352Z,101488.13
2022-11-05T05:34:56.679Z,101492.66
2022-11-05T05:37:25.119Z,101492.91
2022-11-05T05:39:53.618Z,101491.53
2022-11-05T05:42:22.849Z,101489.03
2022-11-05T05:44:51.372Z,101498.56
2022-11-05T05:47:19.743Z,101507.34
2022-11-05T05:49:48.113Z,101506.81
2022-11-05T05:52:16.532Z,101503.13
2022-11-05T05:54:44.984Z,101503.63
2022-11-05T05:57:13.327Z,101502.66
2022-11-05T05:59:41.693Z,101502.66
2022-11-05T06:02:11.762Z,101517.19
2022-11-05T06:04:40.238Z,101509.03
2022-11-05T06:07:08.644Z,101508.69
2022-11-05T06:09:36.990Z,101501.72
2022-11-05T06:12:05.602Z,101515.25
2022-11-05T06:14:33.928Z,101509.38
2022-11-05T06:17:02.259Z,101509.56
2022-11-05T06:19:30.621Z,101509.28
2022-11-05T06:21:59.063Z,101506.47
2022-11-05T06:24:27.402Z,101519.81
2022-11-05T06:26:55.739Z,101513.47
2022-11-05T06:29:24.214Z,101525.25
2022-11-05T06:31:52.698Z,101518.34
2022-11-05T06:34:21.154Z,101528.91
2022-11-05T06:36:49.572Z,101520.88
2022-11-05T06:39:17.997Z,101519.44
2022-11-05T06:42:11.875Z,101526.94
2022-11-05T06:44:35.770Z,101527.38
2022-11-05T06:47:04.386Z,101521.81
2022-11-05T06:49:32.750Z,101521.81
2022-11-05T06:52:01.084Z,101528.31
2022-11-05T06:54:30.425Z,101526.63
2022-11-05T06:56:58.851Z,101527.03
2022-11-05T06:59:27.228Z,101531.53
2022-11-05T07:01:55.979Z,101535.22
2022-11-05T07:04:24.513Z,101533.53
2022-11-05T07:06:52.927Z,101543.69
2022-11-05T07:09:21.523Z,101540.44
2022-11-05T07:11:49.865Z,101541.31
2022-11-05T07:14:19.332Z,101543.81
2022-11-05T07:16:47.732Z,101542.13
2022-11-05T07:19:16.217Z,101547.66
2022-11-05T07:21:45.851Z,101550.75
2022-11-05T07:24:15.471Z,101563.03
2022-11-05T07:26:43.915Z,101555.13
2022-11-05T07:29:12.364Z,101554.56
2022-11-05T07:31:40.775Z,101548.47
2022-11-05T07:34:09.154Z,101559.34
2022-11-05T07:36:39.416Z,101551.31
2022-11-05T07:39:07.869Z,101561.31
2022-11-05T07:41:36.337Z,101563.94
2022-11-05T07:44:04.767Z,101575.69
2022-11-05T07:46:33.222Z,101583.88
2022-11-05T07:49:01.675Z,101573.28
2022-11-05T07:51:30.012Z,101581.03
2022-11-05T07:53:58.498Z,101581.03
2022-11-05T07:56:27.915Z,101581.31
2022-11-05T07:58:56.255Z,101577.69
2022-11-05T08:01:25.045Z,101581.06
2022-11-05T08:03:53.553Z,101573.63
2022-11-05T08:06:22.000Z,101574.25
2022-11-05T08:08:50.530Z,101575.72
2022-11-05T08:11:19.004Z,101573.88
2022-11-05T08:13:47.518Z,101578.13
2022-11-05T08:16:15.930Z,101586.31
2022-11-05T08:18:44.647Z,101575.13
2022-11-05T08:21:13.094Z,101577.63
2022-11-05T08:23:42.862Z,101568.13
2022-11-05T08:26:11.290Z,101571.59
2022-11-05T08:28:39.792Z,101574.63
2022-11-05T08:31:08.230Z,101571.28
2022-11-05T08:33:36.758Z,101568.06
2022-11-05T08:36:06.356Z,101571.88
2022-11-05T08:38:34.807Z,101574.13
2022-11-05T08:41:03.345Z,101582.78
2022-11-05T08:43:31.702Z,101592.25
2022-11-05T08:46:01.634Z,101585.75
2022-11-05T08:48:30.003Z,101581.38
2022-11-05T08:51:00.230Z,101575.16
2022-11-05T08:53:28.727Z,101585.91
2022-11-05T08:56:00.557Z,101584.31
2022-11-05T08:58:29.158Z,101584.78
2022-11-05T09:01:03.438Z,101586.47
2022-11-05T09:03:33.152Z,101583.22
2022-11-05T09:06:01.577Z,101581.41
2022-11-05T09:08:29.998Z,101589.16
2022-11-05T09:10:58.578Z,101587.59
2022-11-05T09:13:27.499Z,101578.78
2022-11-05T09:15:58.014Z,101593.59
2022-11-05T09:18:26.537Z,101577.66
2022-11-05T09:20:55.126Z,101590.34
2022-11-05T09:23:23.721Z,101592.03
2022-11-05T09:25:52.127Z,101581.66
2022-11-05T09:28:22.710Z,101592.31
2022-11-05T09:30:52.668Z,101587.47
2022-11-05T09:33:24.119Z,101588.06
2022-11-05T09:35:53.790Z,101589.78
2022-11-05T09:38:22.373Z,101593.09
2022-11-05T09:41:07.299Z,101589.88
2022-11-05T09:43:50.312Z,101597.34
2022-11-05T09:46:28.142Z,101600.72
2022-11-05T09:49:12.244Z,101605.66
2022-11-05T09:51:41.322Z,101600.91
2022-11-05T09:54:12.941Z,101600.91
2022-11-05T09:56:42.154Z,101606.38
2022-11-05T09:59:24.398Z,101612.53
2022-11-05T10:02:15.712Z,101605.91
2022-11-05T10:04:48.139Z,101618.03
2022-11-05T10:07:22.965Z,101621.94
2022-11-05T10:10:01.221Z,101620.47
2022-11-05T10:12:41.663Z,101617.19
2022-11-05T10:15:24.955Z,101619.91
2022-11-05T10:18:03.494Z,101628.19
2022-11-05T10:20:38.968Z,101635.44
2022-11-05T10:23:14.984Z,101641.22
2022-11-05T10:25:47.187Z,101639.72
2022-11-05T10:28:18.087Z,101648.47
2022-11-05T10:30:50.348Z,101641.13
2022-11-05T10:33:29.723Z,101641.38
2022-11-05T10:36:03.258Z,101642.03
2022-11-05T10:38:32.435Z,101651.16
2022-11-05T10:41:30.035Z,101647.97
2022-11-05T10:44:05.734Z,101634.97
2022-11-05T10:47:06.840Z,101646.59
2022-11-05T10:49:45.575Z,101638.34
2022-11-05T10:52:24.001Z,101644.06
2022-11-05T10:54:55.693Z,101632.94
2022-11-05T10:57:36.508Z,101639.72
2022-11-05T11:00:14.743Z,101643.25
2022-11-05T11:02:43.631Z,101626.69
2022-11-05T11:05:20.808Z,101640.72
2022-11-05T11:08:12.584Z,101641.72
2022-11-05T11:10:48.543Z,101638.00
2022-11-05T11:13:49.994Z,101630.09
2022-11-05T11:16:23.494Z,101620.47
2022-11-05T11:18:59.249Z,101631.78
2022-11-05T11:21:30.241Z,101631.59
2022-11-05T11:24:04.748Z,101630.78
2022-11-05T11:26:37.091Z,101630.41
2022-11-05T11:29:40.530Z,101619.81
2022-11-05T11:32:21.910Z,101619.81
2022-11-05T11:34:53.976Z,101613.69
2022-11-05T11:37:29.604Z,101613.69
2022-11-05T11:40:04.105Z,101612.03
2022-11-05T11:42:39.966Z,101615.94
2022-11-05T11:45:19.238Z,101619.63
2022-11-05T11:47:50.768Z,101615.25
2022-11-05T11:50:41.917Z,101612.66
2022-11-05T11:53:17.545Z,101614.88
2022-11-05T11:55:54.892Z,101616.25
2022-11-05T11:58:34.847Z,101623.84
2022-11-05T12:01:09.190Z,101627.56
2022-11-05T12:03:48.006Z,101624.69
2022-11-05T12:06:51.672Z,101613.75
2022-11-05T12:09:22.889Z,101610.53
2022-11-05T12:12:02.861Z,101598.47
2022-11-05T12:15:15.221Z,101604.56
2022-11-05T12:17:57.957Z,101610.44
2022-11-05T12:20:48.144Z,101604.50
2022-11-05T12:23:35.648Z,101610.19
2022-11-05T12:26:18.420Z,101599.94
2022-11-05T12:29:24.888Z,101602.56
2022-11-05T12:32:04.049Z,101603.81
2022-11-05T12:34:44.638Z,101594.94
2022-11-05T12:37:34.547Z,101605.53
2022-11-05T12:40:10.029Z,101593.88
2022-11-05T12:42:41.416Z,101584.00
2022-11-05T12:45:33.323Z,101582.94
2022-11-05T12:48:36.708Z,101587.25
2022-11-05T12:51:19.774Z,101583.38
2022-11-05T12:54:20.558Z,101579.56
2022-11-05T12:56:53.506Z,101576.84
2022-11-05T12:59:41.055Z,101572.06
2022-11-05T13:02:24.910Z,101572.88
2022-11-05T13:04:59.490Z,101563.78
2022-11-05T13:07:33.217Z,101551.56
2022-11-05T13:10:05.005Z,101559.97
2022-11-05T13:12:38.071Z,101555.94
2022-11-05T13:15:29.506Z,101549.78
2022-11-05T13:18:00.706Z,101547.00
2022-11-05T13:20:32.986Z,101543.41
2022-11-05T13:23:20.742Z,101538.59
2022-11-05T13:25:55.578Z,101540.44
2022-11-05T13:28:24.024Z,101532.34
2022-11-05T13:30:57.939Z,101542.19
2022-11-05T13:33:39.982Z,101542.16
2022-11-05T13:36:35.590Z,101522.72
2022-11-05T13:39:12.973Z,101526.06
2022-11-05T13:42:05.985Z,101522.47
2022-11-05T13:44:43.940Z,101525.13
2022-11-05T13:47:37.374Z,101530.28
2022-11-05T13:50:41.353Z,101520.69
2022-11-05T13:53:29.159Z,101519.78
2022-11-05T13:56:20.560Z,101523.03
2022-11-05T13:58:54.933Z,101519.34
2022-11-05T14:01:44.876Z,101526.16
2022-11-05T14:04:22.514Z,101524.88
2022-11-05T14:06:51.160Z,101518.63
2022-11-05T14:09:25.824Z,101516.53
2022-11-05T14:11:57.937Z,101513.41
2022-11-05T14:14:28.877Z,101517.16
2022-11-05T14:17:09.170Z,101522.53
2022-11-05T14:20:02.686Z,101521.41
2022-11-05T14:22:31.154Z,101509.84
2022-11-05T14:25:01.207Z,101518.50
2022-11-05T14:27:29.500Z,101509.06
2022-11-05T14:29:58.094Z,101506.25
2022-11-05T14:32:42.305Z,101512.31
2022-11-05T14:35:16.797Z,101508.88
2022-11-05T14:37:59.165Z,101512.06
2022-11-05T14:40:30.462Z,101516.16
2022-11-05T14:43:05.789Z,101509.75
2022-11-05T14:45:41.026Z,101514.44
2022-11-05T14:48:51.472Z,101512.81
2022-11-05T14:51:37.021Z,101516.00
2022-11-05T14:54:27.855Z,101516.34
2022-11-05T14:56:59.821Z,101513.00
2022-11-05T14:59:28.311Z,101520.00
2022-11-05T15:01:56.909Z,101509.50
2022-11-05T15:04:32.924Z,101517.13
2022-11-05T15:07:04.363Z,101515.75
2022-11-05T15:09:46.799Z,101513.47
2022-11-05T15:12:54.158Z,101499.41
2022-11-05T15:15:30.180Z,101504.28
2022-11-05T15:18:05.972Z,101496.81
2022-11-05T15:20:46.882Z,101512.94
2022-11-05T15:23:22.567Z,101513.66
2022-11-05T15:26:09.817Z,101503.09
2022-11-05T15:28:45.843Z,101504.94
2022-11-05T15:31:14.153Z,101503.38
2022-11-05T15:33:46.778Z,101496.34
2022-11-05T15:36:27.363Z,101501.38
2022-11-05T15:39:27.421Z,101499.44
2022-11-05T15:41:46.738Z,101495.72
2022-11-05T15:44:26.012Z,101501.38
2022-11-05T15:47:21.071Z,101504.56
2022-11-05T15:49:56.967Z,101495.88
2022-11-05T15:52:33.642Z,101493.19
2022-11-05T15:55:08.057Z,101489.78
2022-11-05T15:57:40.106Z,101497.75
2022-11-05T16:00:18.743Z,101485.44
2022-11-05T16:02:59.643Z,101492.75
2022-11-05T16:05:31.314Z,101495.28
2022-11-05T16:08:01.211Z,101491.56
2022-11-05T16:10:36.834Z,101490.00
2022-11-05T16:13:27.752Z,101486.16
2022-11-05T16:15:58.974Z,101482.22
2022-11-05T16:18:36.001Z,101484.06
2022-11-05T16:21:07.279Z,101491.97
2022-11-05T16:23:52.883Z,101480.53
2022-11-05T16:29:28.316Z,101478.81
2022-11-05T16:31:59.590Z,101481.47
2022-11-05T16:34:42.628Z,101472.72
2022-11-05T16:37:17.068Z,101477.88
2022-11-05T16:39:45.513Z,101482.59
2022-11-05T16:42:23.027Z,101485.13
2022-11-05T16:44:53.478Z,101473.19
2022-11-05T16:47:23.002Z,101474.13
2022-11-05T16:49:51.670Z,101471.97
2022-11-05T16:52:20.107Z,101471.31
2022-11-05T16:54:48.458Z,101472.34
2022-11-05T16:57:22.947Z,101475.72
2022-11-05T16:59:52.071Z,101475.09
2022-11-05T17:02:20.635Z,101470.97
2022-11-05T17:04:49.235Z,101472.09
2022-11-05T17:07:17.761Z,101471.06
2022-11-05T17:09:46.213Z,101470.00
2022-11-05T17:12:15.717Z,101472.75
2022-11-05T17:14:44.127Z,101470.84
2022-11-05T17:17:12.545Z,101470.50
2022-11-05T17:19:42.387Z,101473.84
2022-11-05T17:22:11.926Z,101475.66
2022-11-05T17:24:40.380Z,101480.25
2022-11-05T17:27:09.818Z,101473.66
2022-11-05T17:29:38.301Z,101472.50
2022-11-05T17:32:07.016Z,101464.69
2022-11-05T17:34:35.447Z,101458.91
2022-11-05T17:37:05.068Z,101465.94
2022-11-05T17:39:33.452Z,101463.06
2022-11-05T17:42:02.215Z,101464.66
2022-11-05T17:44:30.611Z,101465.28
2022-11-05T17:46:59.044Z,101470.66
2022-11-05T17:49:28.532Z,101478.34
2022-11-05T17:51:56.965Z,101467.84
2022-11-05T17:54:25.470Z,101471.47
2022-11-05T17:56:53.976Z,101478.69
2022-11-05T17:59:22.357Z,101483.69
2022-11-05T18:01:50.916Z,101490.31
2022-11-05T18:04:19.534Z,101491.72
2022-11-05T18:06:48.181Z,101496.44
2022-11-05T18:09:16.554Z,101495.63
2022-11-05T18:11:45.066Z,101497.19
2022-11-05T18:14:13.510Z,101507.09
2022-11-05T18:16:41.875Z,101507.91
2022-11-05T18:19:10.279Z,101512.19
2022-11-05T18:21:38.735Z,101511.13
2022-11-05T18:24:08.095Z,101514.53
2022-11-05T18:26:36.467Z,101511.19
2022-11-05T18:29:05.428Z,101511.84
2022-11-05T18:31:33.819Z,101504.78
2022-11-05T18:34:02.192Z,101510.84
2022-11-05T18:36:32.448Z,101504.78
2022-11-05T18:39:03.225Z,101497.03
2022-11-05T18:41:31.826Z,101498.03
2022-11-05T18:44:02.003Z,101495.00
2022-11-05T18:46:58.837Z,101496.41
2022-11-05T18:49:20.129Z,101500.06
2022-11-05T18:51:48.567Z,101506.13
2022-11-05T18:54:16.937Z,101503.94
2022-11-05T18:56:45.631Z,101513.91
2022-11-05T19:02:06.384Z,101511.50
2022-11-05T19:04:36.224Z,101519.78
2022-11-05T19:07:05.989Z,101506.47
2022-11-05T19:09:34.751Z,101497.38
2022-11-05T19:12:04.167Z,101498.84
2022-11-05T19:14:33.303Z,101492.63
2022-11-05T19:17:02.122Z,101490.09
2022-11-05T19:19:30.705Z,101484.34
2022-11-05T19:21:59.318Z,101485.19
2022-11-05T19:24:27.680Z,101484.03
2022-11-05T19:26:56.451Z,101488.75
2022-11-05T19:29:24.802Z,101479.31
2022-11-05T19:31:53.203Z,101466.38
2022-11-05T19:34:21.670Z,101468.53
2022-11-05T19:36:50.073Z,101456.56
2022-11-05T19:39:18.495Z,101457.78
2022-11-05T19:41:49.081Z,101457.66
2022-11-05T19:44:18.450Z,101466.06
2022-11-05T19:46:46.825Z,101456.47
2022-11-05T19:49:15.269Z,101469.75
2022-11-05T19:51:43.954Z,101469.44
2022-11-05T19:54:12.363Z,101458.81
2022-11-05T19:56:40.708Z,101452.75
2022-11-05T19:59:11.621Z,101447.00
2022-11-05T20:01:40.123Z,101446.72
2022-11-05T20:04:09.691Z,101434.25
2022-11-05T20:06:40.052Z,101429.53
2022-11-05T20:09:27.390Z,101420.94
2022-11-05T20:11:58.803Z,101412.00
2022-11-05T20:14:27.489Z,101404.63
2022-11-05T20:16:56.076Z,101417.06
2022-11-05T20:19:24.465Z,101418.41
2022-11-05T20:21:53.022Z,101423.31
2022-11-05T20:24:24.670Z,101429.03
2022-11-05T20:26:54.870Z,101423.66
2022-11-05T20:29:26.047Z,101440.84
2022-11-05T20:31:57.876Z,101432.06
2022-11-05T20:34:28.838Z,101430.72
2022-11-05T20:36:57.225Z,101420.78
2022-11-05T20:39:25.789Z,101420.28
2022-11-05T20:41:56.359Z,101420.94
2022-11-05T20:44:24.711Z,101419.75
2022-11-05T20:46:53.130Z,101424.97
2022-11-05T20:49:25.419Z,101422.47
2022-11-05T20:51:54.708Z,101425.63
2022-11-05T20:54:23.516Z,101420.56
2022-11-05T20:56:52.874Z,101417.25
2022-11-05T20:59:21.347Z,101426.69
2022-11-05T21:01:51.894Z,101432.16
2022-11-05T21:04:20.353Z,101437.25
2022-11-05T21:06:48.742Z,101438.47
2022-11-05T21:09:17.350Z,101438.78
2022-11-05T21:12:05.141Z,101443.53
2022-11-05T21:14:33.538Z,101446.56
2022-11-05T21:17:02.308Z,101441.50
2022-11-05T21:19:32.288Z,101449.25
2022-11-05T21:22:01.569Z,101444.72
2022-11-05T21:24:30.060Z,101452.28
2022-11-05T21:26:59.032Z,101453.63
2022-11-05T21:29:27.616Z,101458.34
2022-11-05T21:31:55.947Z,101455.50
2022-11-05T21:34:24.607Z,101453.44
2022-11-05T21:36:53.251Z,101446.38
2022-11-05T21:39:25.609Z,101453.63
2022-11-05T21:41:57.516Z,101450.94
2022-11-05T21:44:26.012Z,101433.94
2022-11-05T21:46:56.985Z,101438.97
2022-11-05T21:49:25.842Z,101437.13
2022-11-05T21:52:12.895Z,101423.31
2022-11-05T21:54:59.617Z,101428.53
2022-11-05T21:57:46.925Z,101411.44
2022-11-05T22:00:15.441Z,101412.00
2022-11-05T22:02:44.014Z,101410.50
2022-11-05T22:05:14.048Z,101403.91
2022-11-05T22:07:42.487Z,101401.00
2022-11-05T22:10:16.061Z,101393.31
2022-11-05T22:12:45.180Z,101402.06
2022-11-05T22:15:13.982Z,101401.59
2022-11-05T22:17:46.659Z,101391.31
2022-11-05T22:20:16.586Z,101392.31
2022-11-05T22:22:45.351Z,101390.59
2022-11-05T22:25:18.177Z,101389.44
2022-11-05T22:27:46.654Z,101393.31
2022-11-05T22:30:15.351Z,101382.84
2022-11-05T22:32:44.064Z,101387.56
2022-11-05T22:35:12.458Z,101389.78
2022-11-05T22:37:40.798Z,101385.22
2022-11-05T22:40:09.738Z,101390.44
2022-11-05T22:42:38.366Z,101388.59
2022-11-05T22:45:07.290Z,101393.81
2022-11-05T22:47:36.188Z,101386.75
2022-11-05T22:50:05.153Z,101388.91
2022-11-05T22:52:33.689Z,101393.78
2022-11-05T22:55:04.595Z,101394.00
2022-11-05T22:57:33.134Z,101378.81
2022-11-05T23:00:01.718Z,101375.97
2022-11-05T23:02:30.261Z,101381.31
2022-11-05T23:04:58.755Z,101386.22
2022-11-05T23:07:45.751Z,101372.94
2022-11-05T23:10:33.123Z,101362.66
2022-11-05T23:13:01.504Z,101364.00
2022-11-05T23:15:48.612Z,101355.63
2022-11-05T23:18:35.994Z,101355.91
2022-11-05T23:21:23.406Z,101338.25
2022-11-05T23:24:06.791Z,101342.31
2022-11-05T23:26:52.585Z,101343.16
2022-11-05T23:29:24.022Z,101340.63
2022-11-05T23:32:12.305Z,101348.53
2022-11-05T23:34:40.670Z,101335.09
2022-11-05T23:37:28.144Z,101337.41
2022-11-05T23:39:56.579Z,101335.72
2022-11-05T23:42:43.606Z,101338.41
2022-11-05T23:45:30.971Z,101324.63
2022-11-05T23:48:18.846Z,101319.91
2022-11-05T23:50:59.838Z,101321.94
2022-11-05T23:53:30.721Z,101312.81
2022-11-05T23:56:02.069Z,101323.25
2022-11-05T23:58:30.531Z,101309.16
